Time;durP1;ratioP1;P1;durP2;ratioP2;P2;SDS_P1;SDS_P2;PMS_P1;PMS_P2;Temp;Humidity;BMP_temperature;BMP_pressure;BME280_temperature;BME280_humidity;BME280_pressure;Samples;Min_cycle;Max_cycle;Signal;HPM_P1;HPM_P2
2022/06/19 00:00:48;;;;;;;14.80;2.97;;;14.60;78.10;;;;;;5100077;28;20091;-44
2022/06/19 00:03:42;;;;;;;9.00;2.85;;;14.60;77.10;;;;;;5113900;27;20030;-48
2022/06/19 00:06:09;;;;;;;11.00;2.45;;;14.50;76.80;;;;;;5130206;27;20530;-48
2022/06/19 00:08:37;;;;;;;9.60;2.15;;;14.50;76.60;;;;;;5107930;28;20031;-46
2022/06/19 00:11:06;;;;;;;15.00;3.50;;;14.50;75.30;;;;;;5110435;28;20477;-44
2022/06/19 00:13:33;;;;;;;8.45;1.80;;;14.50;75.80;;;;;;5095065;27;20130;-44
2022/06/19 00:16:00;;;;;;;14.48;2.95;;;14.50;75.70;;;;;;5131025;27;20031;-44
2022/06/19 00:18:27;;;;;;;16.17;4.22;;;14.50;75.90;;;;;;5128789;27;20042;-46
2022/06/19 00:20:54;;;;;;;17.30;3.30;;;14.40;76.60;;;;;;5110482;28;20088;-45
2022/06/19 00:23:23;;;;;;;10.13;2.72;;;14.40;77.10;;;;;;5110050;27;20084;-44
2022/06/19 00:25:52;;;;;;;15.02;3.40;;;14.40;77.30;;;;;;5110411;28;20610;-46
2022/06/19 00:28:24;;;;;;;9.20;2.28;;;14.40;77.70;;;;;;5110275;28;20122;-44
2022/06/19 00:30:51;;;;;;;10.23;2.50;;;14.40;78.00;;;;;;5122142;27;20028;-45
2022/06/19 00:33:19;;;;;;;16.00;3.95;;;14.50;78.20;;;;;;5091453;28;20050;-46
2022/06/19 00:35:49;;;;;;;18.10;4.50;;;14.50;78.90;;;;;;5123091;27;20032;-43
2022/06/19 00:38:16;;;;;;;18.95;3.75;;;14.60;79.70;;;;;;5110187;28;20024;-44
2022/06/19 00:40:42;;;;;;;21.85;3.78;;;14.60;80.50;;;;;;5108936;27;20161;-50
2022/06/19 00:43:09;;;;;;;16.00;4.10;;;14.60;81.70;;;;;;5112337;27;20023;-44
2022/06/19 00:45:54;;;;;;;22.30;4.00;;;14.60;82.30;;;;;;5113295;27;20032;-45
2022/06/19 00:48:38;;;;;;;19.65;5.38;;;14.70;82.80;;;;;;5110124;28;20066;-45
2022/06/19 00:51:05;;;;;;;12.05;4.28;;;14.70;83.00;;;;;;5126356;27;20403;-44
2022/06/19 00:53:46;;;;;;;14.52;5.63;;;14.70;83.20;;;;;;5130166;27;20134;-44
2022/06/19 00:56:17;;;;;;;22.55;5.30;;;14.70;83.30;;;;;;5109542;28;20036;-45
2022/06/19 00:58:47;;;;;;;18.17;4.32;;;14.80;83.30;;;;;;5109807;28;20390;-44
2022/06/19 01:01:18;;;;;;;21.73;4.35;;;14.80;83.50;;;;;;5091713;28;20028;-45
2022/06/19 01:04:16;;;;;;;15.07;3.50;;;14.80;83.00;;;;;;5109618;28;20035;-46
2022/06/19 01:06:42;;;;;;;15.65;3.65;;;14.80;82.90;;;;;;5115642;27;20469;-47
2022/06/19 01:09:09;;;;;;;14.50;3.80;;;14.80;83.00;;;;;;5116440;27;20023;-45
2022/06/19 01:11:39;;;;;;;15.40;3.97;;;14.80;82.80;;;;;;5127022;27;20024;-45
2022/06/19 01:14:09;;;;;;;16.98;3.50;;;14.80;82.40;;;;;;5107226;28;20022;-45
2022/06/19 01:16:37;;;;;;;14.95;4.75;;;14.80;81.80;;;;;;5094996;28;20028;-45
2022/06/19 01:19:09;;;;;;;16.27;3.50;;;14.80;81.90;;;;;;5119266;28;20031;-44
2022/06/19 01:21:46;;;;;;;12.18;3.00;;;14.80;81.60;;;;;;5129816;28;20015;-43
2022/06/19 01:24:32;;;;;;;14.50;2.75;;;14.90;81.60;;;;;;5106268;28;20039;-45
2022/06/19 01:27:03;;;;;;;21.40;4.28;;;14.90;81.80;;;;;;5109035;28;20023;-44
2022/06/19 01:29:33;;;;;;;15.30;3.25;;;14.90;81.90;;;;;;5113598;28;20034;-44
2022/06/19 01:32:03;;;;;;;15.60;3.78;;;14.90;81.90;;;;;;5128253;28;20126;-45
2022/06/19 01:34:38;;;;;;;11.77;3.47;;;14.90;82.10;;;;;;5111623;28;20031;-46
2022/06/19 01:37:27;;;;;;;11.82;2.70;;;14.90;82.10;;;;;;5115020;28;20023;-46
2022/06/19 01:40:22;;;;;;;23.60;4.03;;;14.90;81.80;;;;;;5127334;28;20019;-44
2022/06/19 01:42:49;;;;;;;22.40;4.55;;;14.90;81.70;;;;;;5110432;28;20027;-45
2022/06/19 01:45:17;;;;;;;16.75;3.60;;;15.00;81.90;;;;;;5095680;28;20094;-44
2022/06/19 01:47:47;;;;;;;17.45;3.90;;;15.00;82.20;;;;;;5113108;27;20039;-44
2022/06/19 01:50:21;;;;;;;10.23;3.80;;;15.00;82.40;;;;;;5115423;27;20065;-46
2022/06/19 01:52:55;;;;;;;11.23;2.95;;;15.00;82.70;;;;;;5124866;27;20056;-45
2022/06/19 01:55:28;;;;;;;16.95;4.40;;;14.90;83.30;;;;;;5094817;27;20103;-43
2022/06/19 01:57:57;;;;;;;21.20;4.07;;;14.90;83.70;;;;;;5113418;28;20020;-43
2022/06/19 02:00:28;;;;;;;16.43;3.67;;;14.90;84.40;;;;;;5113709;27;20027;-43
2022/06/19 02:03:18;;;;;;;19.13;4.45;;;14.90;84.50;;;;;;5131000;27;20277;-43
2022/06/19 02:05:47;;;;;;;21.23;3.95;;;14.80;84.80;;;;;;5116842;27;20031;-43
2022/06/19 02:08:16;;;;;;;18.17;4.30;;;14.70;85.00;;;;;;5095025;28;20031;-43
2022/06/19 02:10:45;;;;;;;16.98;3.17;;;14.60;85.20;;;;;;5112740;28;20848;-43
2022/06/19 02:13:19;;;;;;;12.98;3.53;;;14.50;85.30;;;;;;5095010;28;20037;-43
2022/06/19 02:15:50;;;;;;;19.15;4.03;;;14.50;85.30;;;;;;5113295;27;20467;-44
2022/06/19 02:18:33;;;;;;;15.50;3.58;;;14.40;85.10;;;;;;5113021;28;20456;-42
2022/06/19 02:21:00;;;;;;;20.75;3.70;;;14.40;85.00;;;;;;5112676;28;20584;-43
2022/06/19 02:23:33;;;;;;;17.08;3.95;;;14.40;84.60;;;;;;5112445;28;20103;-42
2022/06/19 02:26:01;;;;;;;18.98;4.50;;;14.40;84.20;;;;;;5094647;28;20055;-42
2022/06/19 02:28:28;;;;;;;18.25;5.93;;;14.30;84.20;;;;;;5112630;27;20034;-43
2022/06/19 02:30:56;;;;;;;19.17;5.32;;;14.40;84.10;;;;;;5112629;27;20028;-42
2022/06/19 02:33:30;;;;;;;19.88;4.07;;;14.30;84.00;;;;;;5112387;28;20020;-44
2022/06/19 02:35:57;;;;;;;18.20;4.07;;;14.30;84.00;;;;;;5128496;27;20027;-44
2022/06/19 02:38:26;;;;;;;16.88;4.22;;;14.30;84.40;;;;;;5133199;27;20023;-44
2022/06/19 02:41:17;;;;;;;23.90;4.55;;;14.20;84.30;;;;;;5112939;27;20032;-43
2022/06/19 02:43:44;;;;;;;20.90;4.03;;;14.20;84.40;;;;;;5111976;28;20088;-42
2022/06/19 02:46:11;;;;;;;21.90;3.25;;;14.20;84.40;;;;;;5116645;27;20023;-42
2022/06/19 02:48:37;;;;;;;18.83;3.85;;;14.20;84.40;;;;;;5132784;27;20474;-42
2022/06/19 02:51:05;;;;;;;23.40;4.55;;;14.10;84.30;;;;;;5112014;27;20114;-42
2022/06/19 02:53:34;;;;;;;20.92;4.05;;;14.00;83.80;;;;;;5104077;27;20078;-42
2022/06/19 02:56:01;;;;;;;15.82;3.08;;;14.00;83.40;;;;;;5112237;27;20363;-42
2022/06/19 02:58:28;;;;;;;19.33;3.78;;;13.90;82.20;;;;;;5094081;28;20032;-43
2022/06/19 03:00:55;;;;;;;17.42;4.25;;;13.90;81.90;;;;;;5128116;27;20023;-44
2022/06/19 03:03:37;;;;;;;17.60;3.38;;;13.90;82.20;;;;;;5132331;27;20064;-43
2022/06/19 03:06:06;;;;;;;14.60;3.70;;;13.80;81.10;;;;;;5107816;27;20027;-43
2022/06/19 03:08:33;;;;;;;15.80;3.40;;;13.80;80.50;;;;;;5113052;27;20031;-42
2022/06/19 03:11:06;;;;;;;14.88;3.95;;;13.70;79.50;;;;;;5130918;27;20667;-44
2022/06/19 03:13:32;;;;;;;18.98;5.10;;;13.70;77.70;;;;;;5132545;27;20031;-44
2022/06/19 03:16:17;;;;;;;15.07;3.42;;;13.70;77.70;;;;;;5099849;27;20027;-44
2022/06/19 03:18:44;;;;;;;11.95;2.83;;;13.70;78.30;;;;;;5132360;27;20022;-44
2022/06/19 03:21:10;;;;;;;14.18;3.03;;;13.70;78.00;;;;;;5114768;27;20491;-46
2022/06/19 03:23:37;;;;;;;14.80;3.00;;;13.70;77.50;;;;;;5111802;28;20027;-44
2022/06/19 03:26:03;;;;;;;10.63;2.85;;;13.70;77.00;;;;;;5111178;28;20107;-43
2022/06/19 03:28:30;;;;;;;8.23;2.42;;;13.60;77.10;;;;;;5111293;28;20114;-46
2022/06/19 03:30:55;;;;;;;13.10;2.20;;;13.70;77.90;;;;;;5105709;27;20035;-46
2022/06/19 03:33:23;;;;;;;13.63;3.30;;;13.70;76.30;;;;;;5131147;27;20037;-45
2022/06/19 03:35:54;;;;;;;12.15;3.20;;;13.70;76.30;;;;;;5129642;27;20035;-44
2022/06/19 03:38:21;;;;;;;14.23;2.78;;;13.70;75.70;;;;;;5132012;27;20023;-45
2022/06/19 03:40:48;;;;;;;9.02;2.03;;;13.70;74.70;;;;;;5130070;27;20503;-45
2022/06/19 03:43:15;;;;;;;10.85;2.83;;;13.80;74.10;;;;;;5131749;27;20456;-45
2022/06/19 03:45:41;;;;;;;14.02;2.50;;;13.90;76.10;;;;;;5120809;27;20035;-45
2022/06/19 03:48:11;;;;;;;11.93;2.75;;;13.90;76.40;;;;;;5113489;27;20023;-45
2022/06/19 03:50:39;;;;;;;8.93;1.92;;;13.90;75.60;;;;;;5130236;27;20037;-45
2022/06/19 03:53:05;;;;;;;14.73;1.77;;;13.90;73.80;;;;;;5131394;27;20103;-44
2022/06/19 03:55:32;;;;;;;9.93;2.05;;;13.90;74.40;;;;;;5105042;28;20031;-44
2022/06/19 03:58:01;;;;;;;12.43;2.33;;;13.90;74.60;;;;;;5092575;28;20031;-44
2022/06/19 04:00:28;;;;;;;8.43;1.95;;;13.90;74.70;;;;;;5113980;27;20076;-45
2022/06/19 04:02:55;;;;;;;18.23;2.20;;;13.90;74.10;;;;;;5092309;28;20035;-44
2022/06/19 04:05:23;;;;;;;6.80;1.95;;;13.90;74.50;;;;;;5109579;28;20110;-44
2022/06/19 04:07:50;;;;;;;7.78;1.98;;;13.90;72.70;;;;;;5110375;28;20047;-44
2022/06/19 04:10:19;;;;;;;10.15;2.58;;;13.90;72.80;;;;;;5110540;27;20107;-47
2022/06/19 04:12:46;;;;;;;11.10;1.92;;;13.90;75.60;;;;;;5110673;28;20023;-51
2022/06/19 04:15:13;;;;;;;10.55;2.85;;;13.90;78.10;;;;;;5110507;27;20507;-48
2022/06/19 04:17:41;;;;;;;11.50;2.97;;;13.60;79.30;;;;;;5095340;28;20356;-49
2022/06/19 04:20:09;;;;;;;12.73;2.75;;;13.40;80.50;;;;;;5126683;27;20019;-47
2022/06/19 04:22:37;;;;;;;10.85;2.90;;;13.20;81.70;;;;;;5092258;28;20030;-47
2022/06/19 04:25:06;;;;;;;10.52;2.40;;;13.10;82.30;;;;;;5092351;28;20340;-47
2022/06/19 04:27:34;;;;;;;13.00;2.58;;;13.10;83.00;;;;;;5119477;27;20079;-48
2022/06/19 04:30:01;;;;;;;18.33;4.03;;;13.10;83.80;;;;;;5129471;27;20031;-48
2022/06/19 04:32:29;;;;;;;11.95;3.22;;;13.20;84.50;;;;;;5129330;27;20163;-46
2022/06/19 04:34:56;;;;;;;13.38;3.03;;;13.30;84.80;;;;;;5112534;27;20062;-46
2022/06/19 04:37:23;;;;;;;17.65;3.92;;;13.40;84.90;;;;;;5125714;27;20027;-46
2022/06/19 04:39:49;;;;;;;18.40;2.97;;;13.40;85.00;;;;;;5122787;27;20226;-47
2022/06/19 04:42:20;;;;;;;18.73;3.80;;;13.40;85.10;;;;;;5120020;27;20034;-46
2022/06/19 04:44:47;;;;;;;14.18;3.38;;;13.40;84.50;;;;;;5091753;28;20027;-45
2022/06/19 04:47:14;;;;;;;17.30;3.95;;;13.40;84.50;;;;;;5091832;28;20035;-45
2022/06/19 04:49:40;;;;;;;15.35;3.00;;;13.40;84.10;;;;;;5117800;27;20019;-48
2022/06/19 04:52:09;;;;;;;11.65;2.90;;;13.40;84.20;;;;;;5129481;27;20096;-51
2022/06/19 04:54:36;;;;;;;12.80;3.35;;;13.50;84.50;;;;;;5103929;28;20036;-49
2022/06/19 04:57:06;;;;;;;9.52;2.72;;;13.40;84.60;;;;;;5091557;28;20032;-52
2022/06/19 04:59:32;;;;;;;16.98;3.58;;;13.50;85.10;;;;;;5109819;28;20051;-48
2022/06/19 05:01:59;;;;;;;13.63;3.13;;;13.60;85.60;;;;;;5118420;27;20069;-51
2022/06/19 05:04:24;;;;;;;17.90;3.60;;;13.60;85.70;;;;;;5099208;28;20031;-51
2022/06/19 05:06:51;;;;;;;15.88;3.70;;;13.60;85.90;;;;;;5109795;28;20510;-51
2022/06/19 05:09:18;;;;;;;14.48;3.30;;;13.60;86.10;;;;;;5109609;28;20102;-52
2022/06/19 05:11:44;;;;;;;11.43;2.63;;;13.60;86.00;;;;;;5109809;28;20035;-54
2022/06/19 05:14:13;;;;;;;12.95;2.97;;;13.60;85.90;;;;;;5109121;28;20081;-56
2022/06/19 05:16:40;;;;;;;12.38;2.63;;;13.50;85.70;;;;;;5109562;28;20019;-50
2022/06/19 05:19:10;;;;;;;11.45;2.13;;;13.50;85.80;;;;;;5098290;28;20041;-51
2022/06/19 05:21:37;;;;;;;;;;;13.50;85.60;;;;;;5130464;28;20019;-50
2022/06/19 05:24:04;;;;;;;8.88;2.58;;;13.40;85.90;;;;;;5104284;28;19918;-48
2022/06/19 05:26:35;;;;;;;17.40;3.30;;;13.30;86.10;;;;;;5109401;28;20035;-47
2022/06/19 05:29:03;;;;;;;14.20;3.22;;;13.30;86.40;;;;;;5114648;28;20023;-48
2022/06/19 05:31:31;;;;;;;9.15;2.25;;;13.30;86.70;;;;;;5104291;28;20028;-48
2022/06/19 05:33:58;;;;;;;13.88;2.05;;;13.30;86.60;;;;;;5113514;28;20031;-47
2022/06/19 05:36:28;;;;;;;11.32;2.35;;;13.30;85.80;;;;;;5129944;28;20424;-47
2022/06/19 05:38:55;;;;;;;12.95;2.88;;;13.30;85.90;;;;;;5113996;28;20106;-47
2022/06/19 05:41:23;;;;;;;10.45;2.15;;;13.40;85.60;;;;;;5091406;28;20047;-47
2022/06/19 05:43:50;;;;;;;12.85;3.25;;;13.50;86.10;;;;;;5123068;28;20387;-47
2022/06/19 05:46:18;;;;;;;11.98;2.75;;;13.60;85.80;;;;;;5110288;28;20453;-45
2022/06/19 05:48:45;;;;;;;10.75;2.17;;;13.70;85.80;;;;;;5110999;28;20163;-46
2022/06/19 05:51:18;;;;;;;12.88;1.98;;;13.90;86.20;;;;;;5090874;28;20077;-48
2022/06/19 05:53:49;;;;;;;8.55;2.47;;;13.90;85.80;;;;;;5108256;28;20047;-45
2022/06/19 05:56:16;;;;;;;8.65;1.52;;;14.10;84.40;;;;;;5109136;28;20079;-43
2022/06/19 05:58:43;;;;;;;7.38;2.50;;;14.40;83.00;;;;;;5116779;28;20163;-43
2022/06/19 06:01:12;;;;;;;8.15;2.45;;;14.60;82.70;;;;;;5112694;28;20035;-43
2022/06/19 06:03:41;;;;;;;14.43;2.88;;;14.90;82.50;;;;;;5121137;28;20024;-44
2022/06/19 06:06:15;;;;;;;16.48;2.70;;;15.00;82.60;;;;;;5124091;28;20476;-42
2022/06/19 06:08:45;;;;;;;16.63;3.22;;;14.90;82.30;;;;;;5116734;28;20036;-42
2022/06/19 06:11:17;;;;;;;11.32;2.30;;;14.50;82.30;;;;;;5102913;28;20031;-42
2022/06/19 06:13:44;;;;;;;13.75;2.70;;;14.20;82.50;;;;;;5109317;28;20725;-42
2022/06/19 06:16:13;;;;;;;10.63;2.97;;;14.00;83.50;;;;;;5109237;28;20228;-42
2022/06/19 06:18:42;;;;;;;19.63;3.20;;;13.90;84.30;;;;;;5127937;28;20023;-42
2022/06/19 06:21:12;;;;;;;12.55;2.95;;;13.80;84.60;;;;;;5129782;28;20027;-43
2022/06/19 06:23:39;;;;;;;;;;;13.60;84.80;;;;;;5109882;28;20116;-42
2022/06/19 06:26:29;;;;;;;10.98;2.20;;;13.50;85.00;;;;;;5091162;28;19980;-42
2022/06/19 06:29:00;;;;;;;17.95;2.90;;;13.40;85.70;;;;;;5091333;28;20015;-42
2022/06/19 06:31:28;;;;;;;14.48;2.65;;;13.40;85.90;;;;;;5111849;27;20068;-43
2022/06/19 06:33:55;;;;;;;13.95;3.00;;;13.40;86.00;;;;;;5112340;28;20535;-44
2022/06/19 06:36:22;;;;;;;12.77;2.65;;;13.40;86.00;;;;;;5121736;27;20027;-42
2022/06/19 06:38:49;;;;;;;14.50;2.72;;;13.40;86.30;;;;;;5112740;27;20081;-43
2022/06/19 06:41:19;;;;;;;7.28;1.80;;;13.40;86.00;;;;;;5117622;27;20016;-44
2022/06/19 06:43:46;;;;;;;15.27;3.35;;;13.30;86.20;;;;;;5122272;27;20087;-43
2022/06/19 06:46:25;;;;;;;12.73;2.67;;;13.40;86.10;;;;;;5117632;27;20023;-43
2022/06/19 06:49:02;;;;;;;10.27;2.45;;;13.40;86.20;;;;;;5102264;27;20031;-45
2022/06/19 06:51:28;;;;;;;11.48;2.50;;;13.40;86.40;;;;;;5117357;27;20030;-42
2022/06/19 06:53:56;;;;;;;13.25;2.28;;;13.40;86.10;;;;;;5118193;27;20036;-44
2022/06/19 06:56:24;;;;;;;14.77;2.33;;;13.50;86.40;;;;;;5122007;27;20073;-44
2022/06/19 06:58:54;;;;;;;15.43;2.22;;;13.50;86.10;;;;;;5118515;27;20024;-43
2022/06/19 07:01:22;;;;;;;12.65;2.40;;;13.50;86.00;;;;;;5119993;27;20376;-41
2022/06/19 07:03:59;;;;;;;14.82;2.30;;;13.40;85.90;;;;;;5119941;27;20075;-46
2022/06/19 07:06:28;;;;;;;12.25;2.95;;;13.40;85.80;;;;;;5130568;27;20042;-43
2022/06/19 07:08:55;;;;;;;17.48;2.63;;;13.50;85.90;;;;;;5107732;27;20064;-46
2022/06/19 07:11:43;;;;;;;9.40;2.15;;;13.50;85.90;;;;;;5093010;27;20432;-47
2022/06/19 07:14:10;;;;;;;7.38;2.35;;;13.60;85.70;;;;;;5124561;27;20034;-45
2022/06/19 07:16:37;;;;;;;12.38;1.92;;;13.60;85.30;;;;;;5119288;27;20531;-43
2022/06/19 07:19:04;;;;;;;11.70;2.10;;;13.70;85.20;;;;;;5119509;27;20073;-45
2022/06/19 07:21:32;;;;;;;13.90;2.30;;;13.70;85.50;;;;;;5125875;27;20039;-45
2022/06/19 07:23:59;;;;;;;11.73;2.25;;;13.70;85.60;;;;;;5132229;27;20060;-46
2022/06/19 07:26:29;;;;;;;10.75;2.55;;;13.80;85.60;;;;;;5096201;28;20476;-44
2022/06/19 07:28:57;;;;;;;13.90;2.38;;;13.80;84.90;;;;;;5111279;27;20035;-45
2022/06/19 07:31:24;;;;;;;6.22;2.13;;;13.80;84.70;;;;;;5113413;27;20027;-44
2022/06/19 07:33:54;;;;;;;9.13;1.83;;;13.90;85.20;;;;;;5103948;27;20031;-44
2022/06/19 07:36:23;;;;;;;7.13;1.25;;;13.90;85.00;;;;;;5123461;27;20048;-44
2022/06/19 07:38:51;;;;;;;8.27;2.05;;;14.00;85.00;;;;;;5119779;27;20079;-46
2022/06/19 07:41:17;;;;;;;6.93;1.55;;;14.20;85.10;;;;;;5124268;27;20056;-45
2022/06/19 07:43:50;;;;;;;6.72;1.48;;;14.40;85.00;;;;;;5105285;27;20428;-46
2022/06/19 07:46:17;;;;;;;11.20;2.17;;;14.40;84.50;;;;;;5120642;27;20487;-43
2022/06/19 07:51:30;;;;;;;7.65;1.58;;;14.60;84.40;;;;;;5111244;27;20051;-47
2022/06/19 07:53:57;;;;;;;5.50;1.40;;;14.70;83.90;;;;;;5116381;27;20040;-45
2022/06/19 07:56:24;;;;;;;10.50;1.92;;;14.80;83.90;;;;;;5110486;27;20027;-45
2022/06/19 07:58:54;;;;;;;5.90;1.75;;;14.80;83.80;;;;;;5093167;28;20027;-45
2022/06/19 08:01:21;;;;;;;5.93;1.85;;;14.80;83.50;;;;;;5096481;27;20036;-44
2022/06/19 08:03:48;;;;;;;8.50;2.10;;;14.80;83.10;;;;;;5095002;27;20463;-44
2022/06/19 08:06:19;;;;;;;5.63;1.92;;;14.70;83.10;;;;;;5097616;27;20029;-45
2022/06/19 08:08:46;;;;;;;5.00;1.95;;;14.70;83.50;;;;;;5118419;27;20039;-46
2022/06/19 08:11:13;;;;;;;11.45;1.88;;;14.80;83.30;;;;;;5110581;28;20051;-46
2022/06/19 08:13:41;;;;;;;5.97;2.10;;;14.80;82.60;;;;;;5092265;28;20032;-47
2022/06/19 08:16:14;;;;;;;6.15;1.88;;;14.90;83.30;;;;;;5115378;27;20035;-44
2022/06/19 08:18:41;;;;;;;7.60;1.80;;;14.90;83.40;;;;;;5114184;27;20090;-45
2022/06/19 08:21:08;;;;;;;6.00;1.80;;;14.90;83.20;;;;;;5095031;28;20031;-46
2022/06/19 08:23:34;;;;;;;5.97;2.28;;;14.90;83.20;;;;;;5097140;27;20035;-46
2022/06/19 08:26:01;;;;;;;9.35;2.15;;;15.10;82.90;;;;;;5109781;28;20050;-47
2022/06/19 08:28:33;;;;;;;5.60;1.85;;;15.20;82.60;;;;;;5115282;27;20055;-45
2022/06/19 08:31:00;;;;;;;6.88;1.70;;;15.30;82.90;;;;;;5115124;27;20039;-45
2022/06/19 08:33:27;;;;;;;3.92;1.10;;;15.30;81.90;;;;;;5118878;27;20077;-45
2022/06/19 08:35:58;;;;;;;7.13;2.05;;;15.40;82.00;;;;;;5114519;27;20034;-44
2022/06/19 08:38:34;;;;;;;5.47;1.83;;;15.50;82.00;;;;;;5112768;27;20032;-48
2022/06/19 08:41:24;;;;;;;6.43;1.65;;;15.40;81.20;;;;;;5121622;27;20035;-45
2022/06/19 08:44:11;;;;;;;6.32;1.40;;;15.40;81.00;;;;;;5054207;28;20453;-46
2022/06/19 08:47:04;;;;;;;7.05;1.98;;;15.40;81.10;;;;;;5115022;27;20039;-46
2022/06/19 08:49:50;;;;;;;5.43;1.38;;;15.50;81.20;;;;;;5098343;27;20054;-45
2022/06/19 08:52:43;;;;;;;5.53;1.50;;;15.50;81.30;;;;;;5118249;27;20029;-45
2022/06/19 08:55:27;;;;;;;7.95;1.88;;;15.60;81.30;;;;;;5117799;27;20096;-46
2022/06/19 08:58:31;;;;;;;7.55;2.53;;;15.50;80.20;;;;;;5114731;27;20545;-47
2022/06/19 09:01:15;;;;;;;5.05;1.58;;;15.50;80.70;;;;;;5114209;27;20043;-45
2022/06/19 09:07:51;;;;;;;6.90;1.70;;;15.60;80.80;;;;;;5083193;27;20074;-44
2022/06/19 09:10:40;;;;;;;7.53;1.35;;;15.60;80.20;;;;;;5108878;27;20030;-48
2022/06/19 09:13:31;;;;;;;9.80;2.47;;;15.60;80.50;;;;;;5108810;28;20407;-45
2022/06/19 09:16:11;;;;;;;6.07;1.60;;;15.50;80.80;;;;;;5091517;28;20055;-51
2022/06/19 09:18:50;;;;;;;7.03;2.33;;;15.40;80.80;;;;;;5096584;28;20345;-45
2022/06/19 09:21:34;;;;;;;8.48;1.90;;;15.40;80.80;;;;;;5117512;28;20027;-46
2022/06/19 09:24:24;;;;;;;7.10;1.88;;;15.40;80.20;;;;;;5118988;28;20037;-46
2022/06/19 09:27:10;;;;;;;8.30;2.15;;;15.40;80.80;;;;;;5115982;28;20032;-45
2022/06/19 09:29:58;;;;;;;9.50;1.67;;;15.40;80.20;;;;;;5118340;28;20460;-46
2022/06/19 09:33:03;;;;;;;6.70;1.83;;;15.30;80.50;;;;;;5116873;28;20046;-45
2022/06/19 09:36:00;;;;;;;8.45;1.73;;;15.20;80.80;;;;;;5118168;28;20042;-46
2022/06/19 09:39:09;;;;;;;7.22;1.85;;;15.10;81.60;;;;;;5118594;28;20072;-45
2022/06/19 09:41:48;;;;;;;4.93;1.63;;;15.00;81.50;;;;;;5097513;28;20033;-46
2022/06/19 09:44:22;;;;;;;6.07;1.57;;;15.10;81.60;;;;;;5102761;28;20023;-45
2022/06/19 09:47:09;;;;;;;10.05;2.50;;;15.00;81.90;;;;;;5118981;28;20163;-46
2022/06/19 09:50:03;;;;;;;4.75;1.50;;;14.90;81.40;;;;;;5117481;28;20428;-46
2022/06/19 09:52:36;;;;;;;7.20;1.83;;;14.90;82.20;;;;;;5117648;27;20043;-45
2022/06/19 09:55:41;;;;;;;6.32;1.75;;;14.90;82.20;;;;;;5116668;28;20031;-45
2022/06/19 09:58:41;;;;;;;7.13;2.03;;;14.70;81.90;;;;;;5119657;28;20321;-46
2022/06/19 10:01:08;;;;;;;5.53;1.50;;;14.60;82.60;;;;;;5083364;28;20123;-45
2022/06/19 10:04:02;;;;;;;5.63;1.27;;;14.60;81.50;;;;;;5085173;27;20356;-49
2022/06/19 10:06:49;;;;;;;6.32;1.73;;;14.60;81.50;;;;;;5121120;27;20036;-46
2022/06/19 10:09:55;;;;;;;5.47;1.48;;;14.50;81.20;;;;;;5100403;27;20329;-45
2022/06/19 10:12:50;;;;;;;7.10;1.90;;;14.40;80.90;;;;;;5123635;27;20023;-45
2022/06/19 10:15:25;;;;;;;7.95;2.50;;;14.30;81.00;;;;;;5120281;27;20038;-45
2022/06/19 10:18:12;;;;;;;8.95;1.92;;;14.30;81.20;;;;;;5121688;27;20820;-45
2022/06/19 10:24:16;;;;;;;5.40;2.17;;;14.40;81.20;;;;;;5122721;27;20038;-45
2022/06/19 10:26:59;;;;;;;7.90;1.58;;;14.50;81.40;;;;;;5123483;27;20015;-45
2022/06/19 10:29:45;;;;;;;7.05;1.73;;;14.60;81.20;;;;;;5099627;28;20459;-46
2022/06/19 10:32:26;;;;;;;10.13;1.92;;;14.80;80.80;;;;;;5102848;27;20031;-45
2022/06/19 10:35:12;;;;;;;5.35;1.50;;;14.90;80.30;;;;;;5112021;28;20027;-45
2022/06/19 10:38:15;;;;;;;7.45;2.30;;;15.00;80.60;;;;;;5116031;27;20032;-45
2022/06/19 10:41:08;;;;;;;5.95;1.20;;;15.20;79.00;;;;;;5120854;27;20033;-45
2022/06/19 10:43:55;;;;;;;8.32;1.98;;;15.30;78.80;;;;;;5103166;27;20022;-47
2022/06/19 10:46:24;;;;;;;7.63;1.60;;;15.40;78.20;;;;;;5111975;28;20063;-45
2022/06/19 10:49:35;;;;;;;6.68;1.70;;;15.40;77.60;;;;;;5119860;27;20027;-46
2022/06/19 10:52:18;;;;;;;6.82;1.65;;;15.40;78.30;;;;;;5118103;27;20065;-45
2022/06/19 10:55:26;;;;;;;6.53;1.33;;;15.40;78.30;;;;;;5114821;27;20055;-46
2022/06/19 10:58:10;;;;;;;4.38;1.55;;;15.40;78.30;;;;;;5103906;27;20024;-45
2022/06/19 11:00:38;;;;;;;3.78;1.20;;;15.40;77.80;;;;;;5104837;27;20034;-46
2022/06/19 11:06:16;;;;;;;5.97;1.52;;;15.30;78.10;;;;;;5123229;27;20123;-45
2022/06/19 11:08:49;;;;;;;6.05;1.33;;;15.20;78.80;;;;;;5102673;27;20031;-47
2022/06/19 11:11:17;;;;;;;6.43;2.13;;;15.20;78.60;;;;;;5115622;27;20030;-45
2022/06/19 11:14:06;;;;;;;6.60;1.23;;;15.10;79.40;;;;;;5126191;27;20056;-45
2022/06/19 11:16:51;;;;;;;4.22;1.15;;;15.10;80.10;;;;;;5120876;27;20039;-47
2022/06/19 11:19:45;;;;;;;4.40;1.48;;;15.10;79.60;;;;;;5111663;28;20032;-45
2022/06/19 11:22:37;;;;;;;6.30;1.40;;;15.20;79.80;;;;;;5125623;27;20054;-45
2022/06/19 11:25:21;;;;;;;8.35;2.05;;;15.10;79.80;;;;;;5131795;27;20034;-45
2022/06/19 11:28:02;;;;;;;6.68;2.17;;;15.00;79.90;;;;;;5111775;27;20051;-48
2022/06/19 11:30:34;;;;;;;4.47;1.08;;;14.90;80.00;;;;;;5127563;27;20031;-49
2022/06/19 11:33:09;;;;;;;7.65;1.65;;;14.80;80.00;;;;;;5131934;27;20115;-46
2022/06/19 11:35:48;;;;;;;5.22;1.40;;;14.60;80.20;;;;;;5130331;27;20422;-45
2022/06/19 11:38:17;;;;;;;3.83;1.00;;;14.60;80.60;;;;;;5131651;27;20114;-45
2022/06/19 11:40:49;;;;;;;7.65;1.52;;;14.70;80.70;;;;;;5113541;27;20512;-45
2022/06/19 11:43:31;;;;;;;5.95;1.50;;;14.80;81.00;;;;;;5126557;27;20072;-45
2022/06/19 11:46:07;;;;;;;7.13;2.53;;;14.90;80.40;;;;;;5117445;27;20112;-47
2022/06/19 11:48:37;;;;;;;7.78;1.77;;;14.90;79.30;;;;;;5123866;27;20028;-47
2022/06/19 11:51:16;;;;;;;4.70;1.40;;;14.90;79.60;;;;;;5119210;27;20501;-48
2022/06/19 11:53:49;;;;;;;7.10;1.33;;;14.90;79.40;;;;;;5119013;27;20056;-45
2022/06/19 11:56:36;;;;;;;5.07;1.77;;;15.00;78.80;;;;;;5120093;27;20123;-46
2022/06/19 11:59:25;;;;;;;4.60;1.17;;;15.00;78.60;;;;;;5102980;27;20019;-44
2022/06/19 12:01:51;;;;;;;5.72;1.35;;;15.00;78.40;;;;;;5119010;27;20042;-45
2022/06/19 12:04:39;;;;;;;5.60;1.77;;;15.00;77.90;;;;;;5118829;27;20060;-46
2022/06/19 12:07:18;;;;;;;4.78;1.13;;;15.00;77.70;;;;;;5116866;27;20019;-45
2022/06/19 12:09:59;;;;;;;7.43;1.15;;;15.00;78.00;;;;;;5118209;27;20057;-48
2022/06/19 12:12:30;;;;;;;5.03;0.90;;;15.00;78.30;;;;;;5118086;27;20047;-48
2022/06/19 12:15:14;;;;;;;3.28;1.00;;;14.90;78.10;;;;;;5119642;27;20035;-47
2022/06/19 12:17:44;;;;;;;3.55;1.10;;;14.90;78.40;;;;;;5115021;27;20024;-46
2022/06/19 12:20:12;;;;;;;4.45;1.55;;;14.80;79.30;;;;;;5121532;27;20042;-45
2022/06/19 12:22:45;;;;;;;3.35;0.93;;;14.80;79.40;;;;;;5121345;27;20092;-46
2022/06/19 12:25:31;;;;;;;4.43;1.10;;;14.80;79.20;;;;;;5120599;27;20453;-45
2022/06/19 12:28:29;;;;;;;5.60;1.00;;;14.70;79.20;;;;;;5123843;27;20027;-47
2022/06/19 12:31:15;;;;;;;3.97;1.05;;;14.60;78.90;;;;;;5103817;28;20131;-45
2022/06/19 12:34:11;;;;;;;5.97;1.90;;;14.60;79.30;;;;;;5116337;27;20027;-45
2022/06/19 12:36:38;;;;;;;6.78;1.65;;;14.50;79.80;;;;;;5115087;27;20041;-47
2022/06/19 12:39:30;;;;;;;5.85;1.58;;;14.40;79.40;;;;;;5120432;27;20038;-45
2022/06/19 12:42:27;;;;;;;3.38;1.23;;;14.40;79.50;;;;;;5117357;27;20030;-46
2022/06/19 12:45:35;;;;;;;3.85;1.20;;;14.40;79.50;;;;;;5110860;27;20036;-44
2022/06/19 12:48:29;;;;;;;3.00;0.80;;;14.40;80.20;;;;;;5118965;27;20468;-46
2022/06/19 12:51:03;;;;;;;5.82;1.15;;;14.40;80.40;;;;;;5114816;27;20035;-46
2022/06/19 12:53:54;;;;;;;5.78;1.13;;;14.40;80.80;;;;;;5092881;28;20107;-45
2022/06/19 12:56:56;;;;;;;2.08;1.08;;;14.50;80.70;;;;;;5108752;28;20035;-48
2022/06/19 12:59:48;;;;;;;3.28;0.95;;;14.60;80.90;;;;;;5109166;27;20048;-49
2022/06/19 13:02:27;;;;;;;4.38;0.80;;;14.80;80.10;;;;;;5108510;28;20348;-45
2022/06/19 13:05:17;;;;;;;2.70;1.23;;;14.90;80.00;;;;;;5108867;28;20027;-47
2022/06/19 13:08:11;;;;;;;3.38;0.90;;;15.20;79.70;;;;;;5090645;28;20059;-45
2022/06/19 13:11:08;;;;;;;5.05;0.82;;;15.40;79.10;;;;;;5089998;28;20046;-45
2022/06/19 13:13:58;;;;;;;3.15;0.85;;;15.30;78.50;;;;;;5096429;27;20019;-45
2022/06/19 13:16:57;;;;;;;3.20;0.77;;;15.30;78.10;;;;;;5124318;27;20033;-46
2022/06/19 13:19:52;;;;;;;4.40;0.90;;;15.20;78.10;;;;;;5120147;28;20028;-46
2022/06/19 13:22:32;;;;;;;2.83;1.48;;;15.20;78.40;;;;;;5108926;28;20400;-47
2022/06/19 13:25:16;;;;;;;2.20;0.88;;;15.20;78.80;;;;;;5108208;28;20410;-45
2022/06/19 13:28:01;;;;;;;3.92;0.70;;;15.10;78.60;;;;;;5108566;28;20024;-45
2022/06/19 13:30:41;;;;;;;5.10;1.05;;;15.10;77.30;;;;;;5103173;28;20035;-46
2022/06/19 13:33:44;;;;;;;2.75;0.73;;;15.10;77.30;;;;;;5114934;28;20032;-49
2022/06/19 13:36:29;;;;;;;3.30;0.80;;;15.20;77.30;;;;;;5108307;28;20030;-45